^^
Station Historical Data
Daily Summary for March 26, 2021 Units:  English    Metric   Both
Daily Weekly Monthly Yearly
  High: Low: Average:
Temperature: 42.2 °F 34.9 °F 38.5 °F
Dew Point: 37.6 °F 32 °F 34.7 °F
Humidity: 92% 78% 86%
Wind Speed: 12mph 0mph 5.6mph
Wind Gust: 18mph - -
Wind- - SW
Pressure: 30.08 in 29.55 in -
Precipitation: 0.57 in    
 
 
Tabular Data for March 26, 2021
Time Temperature Dew Point Pressure Wind Wind Speed Wind Gust Humidity Rainfall Rate (Hourly) solar
00:00 35.9 °F 32.7 °F 29.77 in ENE 8 mph 9 mph 88% 0.00 in 0 W/m2
00:05 36 °F 32.8 °F 29.76 in ENE 8 mph 10 mph 88% 0.00 in 0 W/m2
00:10 35.9 °F 32.7 °F 29.75 in NNE 7 mph 10 mph 88% 0.00 in 0 W/m2
00:15 35.9 °F 32.7 °F 29.75 in NE 6 mph 10 mph 88% 0.00 in 0 W/m2
00:20 35.9 °F 32.7 °F 29.75 in ENE 6 mph 6 mph 88% 0.00 in 0 W/m2
00:25 35.9 °F 32.7 °F 29.75 in NE 6 mph 9 mph 88% 0.00 in 0 W/m2
00:30 35.9 °F 32.7 °F 29.75 in North 6 mph 6 mph 88% 0.00 in 0 W/m2
00:35 35.8 °F 32.9 °F 29.74 in North 5 mph 6 mph 89% 0.00 in 0 W/m2
00:40 35.7 °F 32.5 °F 29.74 in ENE 5 mph 5 mph 88% 0.00 in 0 W/m2
00:45 35.7 °F 32.8 °F 29.74 in NNE 6 mph 8 mph 89% 0.00 in 0 W/m2
00:50 35.6 °F 32.7 °F 29.74 in NNW 8 mph 10 mph 89% 0.00 in 0 W/m2
00:55 35.6 °F 32.7 °F 29.74 in ENE 8 mph 11 mph 89% 0.00 in 0 W/m2
01:00 35.6 °F 32.7 °F 29.73 in North 8 mph 11 mph 89% 0.00 in 0 W/m2
01:05 35.4 °F 32.5 °F 29.72 in ENE 8 mph 11 mph 89% 0.00 in 0 W/m2
01:10 35.3 °F 32.4 °F 29.72 in NNE 9 mph 9 mph 89% 0.00 in 0 W/m2
01:15 35.3 °F 32.4 °F 29.71 in NE 8 mph 9 mph 89% 0.00 in 0 W/m2
01:20 35.2 °F 32.3 °F 29.71 in NE 10 mph 11 mph 89% 0.00 in 0 W/m2
01:25 35.1 °F 32.2 °F 29.70 in NNE 10 mph 11 mph 89% 0.00 in 0 W/m2
01:30 35 °F 32.1 °F 29.70 in North 9 mph 15 mph 89% 0.00 in 0 W/m2
01:35 35 °F 32.1 °F 29.70 in NE 9 mph 15 mph 89% 0.00 in 0 W/m2
01:40 34.9 °F 32 °F 29.70 in ENE 9 mph 9 mph 89% 0.00 in 0 W/m2
01:45 35 °F 32.1 °F 29.71 in NNW 9 mph 9 mph 89% 0.00 in 0 W/m2
01:50 35 °F 32.1 °F 29.71 in ENE 8 mph 13 mph 89% 0.00 in 0 W/m2
01:55 34.9 °F 32 °F 29.72 in East 8 mph 14 mph 89% 0.00 in 0 W/m2
02:00 35 °F 32.1 °F 29.70 in ENE 7 mph 7 mph 89% 0.00 in 0 W/m2
02:05 35 °F 32.1 °F 29.70 in North 7 mph 7 mph 89% 0.00 in 0 W/m2
02:10 35.1 °F 32.2 °F 29.71 in NNE 6 mph 8 mph 89% 0.00 in 0 W/m2
02:15 35 °F 32.4 °F 29.71 in NE 6 mph 8 mph 90% 0.04 in 0 W/m2
02:20 34.9 °F 32.3 °F 29.72 in NNE 7 mph 8 mph 90% 0.04 in 0 W/m2
02:25 34.9 °F 32.3 °F 29.72 in NNE 7 mph 8 mph 90% 0.04 in 0 W/m2
02:30 34.9 °F 32.3 °F 29.72 in NE 6 mph 11 mph 90% 0.05 in 0 W/m2
02:35 35 °F 32.4 °F 29.70 in ENE 7 mph 11 mph 90% 0.08 in 0 W/m2
02:40 35 °F 32.4 °F 29.67 in North 7 mph 7 mph 90% 0.11 in 0 W/m2
02:45 35.1 °F 32.5 °F 29.66 in NE 6 mph 9 mph 90% 0.15 in 0 W/m2
02:50 35.1 °F 32.5 °F 29.64 in SE 6 mph 6 mph 90% 0.18 in 0 W/m2
02:55 35.2 °F 32.6 °F 29.64 in NE 6 mph 6 mph 90% 0.16 in 0 W/m2
03:00 35.2 °F 32.6 °F 29.62 in SE 7 mph 13 mph 90% 0.16 in 0 W/m2
03:05 35.2 °F 32.8 °F 29.62 in North 7 mph 13 mph 91% 0.14 in 0 W/m2
03:10 35.2 °F 32.6 °F 29.63 in NNE 8 mph 8 mph 90% 0.10 in 0 W/m2
03:15 35.1 °F 32.5 °F 29.65 in NNE 8 mph 8 mph 90% 0.09 in 0 W/m2
03:20 35.1 °F 32.7 °F 29.64 in NNW 7 mph 7 mph 91% 0.06 in 0 W/m2
03:25 35.1 °F 32.7 °F 29.61 in NNE 8 mph 16 mph 91% 0.04 in 0 W/m2
03:30 35 °F 32.6 °F 29.60 in NNE 9 mph 9 mph 91% 0.00 in 0 W/m2
03:35 35.1 °F 32.7 °F 29.59 in ENE 10 mph 10 mph 91% 0.00 in 0 W/m2
03:40 35.2 °F 32.8 °F 29.60 in North 10 mph 10 mph 91% 0.00 in 0 W/m2
03:45 35.3 °F 32.9 °F 29.59 in NNE 10 mph 10 mph 91% 0.06 in 0 W/m2
03:50 35.2 °F 32.8 °F 29.59 in NE 10 mph 10 mph 91% 0.06 in 0 W/m2
03:55 35.3 °F 32.9 °F 29.59 in NNE 9 mph 10 mph 91% 0.07 in 0 W/m2
04:00 35.3 °F 32.9 °F 29.58 in NE 9 mph 9 mph 91% 0.07 in 0 W/m2
04:05 35.3 °F 32.9 °F 29.57 in NNE 9 mph 9 mph 91% 0.06 in 0 W/m2
04:10 35.3 °F 32.9 °F 29.56 in NE 9 mph 9 mph 91% 0.06 in 0 W/m2
04:15 35.4 °F 33 °F 29.55 in East 10 mph 10 mph 91% 0.05 in 0 W/m2
04:20 35.3 °F 32.9 °F 29.55 in NNW 10 mph 12 mph 91% 0.04 in 0 W/m2
04:25 35.4 °F 33 °F 29.57 in NNE 9 mph 12 mph 91% 0.00 in 0 W/m2
04:30 35.4 °F 33 °F 29.58 in NNE 8 mph 8 mph 91% 0.00 in 0 W/m2
04:35 35.5 °F 33.1 °F 29.58 in ENE 8 mph 8 mph 91% 0.00 in 0 W/m2
04:40 35.5 °F 33.1 °F 29.58 in ENE 8 mph 8 mph 91% 0.00 in 0 W/m2
04:45 35.5 °F 33.1 °F 29.57 in NNE 8 mph 13 mph 91% 0.00 in 0 W/m2
04:50 35.6 °F 33.2 °F 29.57 in North 8 mph 15 mph 91% 0.00 in 0 W/m2
04:55 35.7 °F 33.3 °F 29.57 in North 9 mph 15 mph 91% 0.13 in 0 W/m2
05:05 35.9 °F 33.8 °F 29.56 in NNW 9 mph 18 mph 92% 0.10 in 0 W/m2
05:10 36 °F 33.9 °F 29.56 in NNE 9 mph 9 mph 92% 0.11 in 0 W/m2
05:15 36.1 °F 34 °F 29.55 in NNE 9 mph 10 mph 92% 0.11 in 0 W/m2
05:20 36.1 °F 34 °F 29.55 in North 9 mph 9 mph 92% 0.12 in 0 W/m2
05:25 36.3 °F 34.2 °F 29.56 in NNW 10 mph 13 mph 92% 0.12 in 0 W/m2
05:30 36.4 °F 34.3 °F 29.56 in NNW 10 mph 10 mph 92% 0.19 in 0 W/m2
05:35 36.4 °F 34.3 °F 29.56 in NNW 10 mph 11 mph 92% 0.22 in 0 W/m2
05:40 36.6 °F 34.5 °F 29.56 in NNW 9 mph 9 mph 92% 0.25 in 0 W/m2
05:45 36.7 °F 34.6 °F 29.56 in NNW 9 mph 14 mph 92% 0.20 in 0 W/m2
05:50 36.8 °F 34.7 °F 29.56 in NW 10 mph 10 mph 92% 0.21 in 0 W/m2
05:55 36.8 °F 34.7 °F 29.57 in North 10 mph 10 mph 92% 0.26 in 0 W/m2
06:00 36.9 °F 34.8 °F 29.57 in North 10 mph 10 mph 92% 0.18 in 0 W/m2
06:05 36.8 °F 34.7 °F 29.58 in North 10 mph 11 mph 92% 0.30 in 0 W/m2
06:10 36.8 °F 34.7 °F 29.58 in NE 10 mph 11 mph 92% 0.26 in 0 W/m2
06:15 36.7 °F 34.6 °F 29.59 in NNE 11 mph 11 mph 92% 0.22 in 0 W/m2
06:20 36.7 °F 34.6 °F 29.59 in NNW 10 mph 10 mph 92% 0.21 in 0 W/m2
06:25 36.6 °F 34.5 °F 29.60 in NW 10 mph 13 mph 92% 0.17 in 0 W/m2
06:30 36.6 °F 34.5 °F 29.60 in NW 10 mph 10 mph 92% 0.19 in 0 W/m2
06:35 36.6 °F 34.5 °F 29.61 in NNW 10 mph 12 mph 92% 0.15 in 0 W/m2
06:40 36.5 °F 34.4 °F 29.61 in North 11 mph 11 mph 92% 0.14 in 0 W/m2
06:45 36.5 °F 34.4 °F 29.61 in NE 11 mph 11 mph 92% 0.12 in 0 W/m2
06:50 36.6 °F 34.5 °F 29.62 in North 11 mph 14 mph 92% 0.11 in 0 W/m2
06:55 36.6 °F 34.5 °F 29.61 in North 11 mph 14 mph 92% 0.09 in 0 W/m2
07:00 36.6 °F 34.5 °F 29.62 in NNW 11 mph 16 mph 92% 0.09 in 0 W/m2
07:05 36.6 °F 34.5 °F 29.62 in NNE 12 mph 18 mph 92% 0.06 in 0 W/m2
07:10 36.7 °F 34.6 °F 29.62 in NE 11 mph 11 mph 92% 0.06 in 0 W/m2
07:15 36.9 °F 34.8 °F 29.63 in North 10 mph 11 mph 92% 0.05 in 0 W/m2
07:20 36.9 °F 34.8 °F 29.63 in North 8 mph 12 mph 92% 0.04 in 0 W/m2
07:25 36.9 °F 34.8 °F 29.64 in NNE 10 mph 12 mph 92% 0.04 in 0 W/m2
07:30 36.9 °F 34.8 °F 29.64 in NNW 11 mph 15 mph 92% 0.04 in 0 W/m2
07:35 37 °F 34.9 °F 29.64 in North 11 mph 15 mph 92% 0.04 in 0 W/m2
07:40 36.9 °F 34.8 °F 29.65 in NNE 11 mph 16 mph 92% 0.00 in 0 W/m2
07:45 37 °F 34.9 °F 29.65 in North 11 mph 16 mph 92% 0.00 in 0 W/m2
07:50 37 °F 34.9 °F 29.65 in NW 12 mph 12 mph 92% 0.00 in 7 W/m2
07:55 37.1 °F 35 °F 29.66 in NNW 11 mph 12 mph 92% 0.00 in 7 W/m2
08:00 37 °F 34.9 °F 29.66 in North 11 mph 12 mph 92% 0.00 in 9 W/m2
08:05 37 °F 34.9 °F 29.66 in West 11 mph 12 mph 92% 0.00 in 12 W/m2
08:10 37.1 °F 35 °F 29.67 in North 11 mph 11 mph 92% 0.00 in 18 W/m2
08:15 37.1 °F 35 °F 29.67 in North 11 mph 11 mph 92% 0.00 in 30 W/m2
08:20 37.1 °F 35 °F 29.68 in NNE 11 mph 13 mph 92% 0.00 in 37 W/m2
08:25 37.1 °F 35 °F 29.69 in North 10 mph 13 mph 92% 0.00 in 42 W/m2
08:30 37.1 °F 35 °F 29.69 in NNE 10 mph 10 mph 92% 0.00 in 33 W/m2
08:35 37.1 °F 35 °F 29.70 in North 10 mph 10 mph 92% 0.00 in 35 W/m2
08:40 37 °F 34.9 °F 29.71 in NW 10 mph 17 mph 92% 0.00 in 35 W/m2
08:45 36.9 °F 34.8 °F 29.71 in NNE 10 mph 17 mph 92% 0.00 in 49 W/m2
08:50 37 °F 34.9 °F 29.72 in North 10 mph 12 mph 92% 0.00 in 49 W/m2
08:55 36.9 °F 34.8 °F 29.73 in North 10 mph 16 mph 92% 0.00 in 37 W/m2
09:00 36.9 °F 34.8 °F 29.73 in NNW 9 mph 9 mph 92% 0.00 in 32 W/m2
09:05 36.8 °F 34.4 °F 29.74 in WNW 9 mph 9 mph 91% 0.00 in 33 W/m2
09:10 36.8 °F 34.4 °F 29.75 in NW 8 mph 8 mph 91% 0.00 in 30 W/m2
09:15 36.8 °F 34.4 °F 29.75 in North 7 mph 13 mph 91% 0.00 in 30 W/m2
09:20 36.7 °F 34.3 °F 29.76 in NNE 7 mph 8 mph 91% 0.00 in 30 W/m2
09:25 36.6 °F 34.2 °F 29.76 in NNE 7 mph 12 mph 91% 0.00 in 33 W/m2
09:30 36.5 °F 34.1 °F 29.77 in NW 8 mph 9 mph 91% 0.00 in 35 W/m2
09:35 36.4 °F 34 °F 29.77 in North 8 mph 9 mph 91% 0.00 in 44 W/m2
09:40 36.4 °F 34 °F 29.78 in NNE 8 mph 9 mph 91% 0.00 in 46 W/m2
09:45 36.4 °F 34 °F 29.79 in NNW 8 mph 13 mph 91% 0.00 in 42 W/m2
09:50 36.3 °F 33.9 °F 29.80 in North 8 mph 8 mph 91% 0.00 in 46 W/m2
09:55 36.2 °F 33.8 °F 29.80 in NW 8 mph 17 mph 91% 0.00 in 42 W/m2
10:00 36.2 °F 33.5 °F 29.80 in NNE 8 mph 8 mph 90% 0.00 in 44 W/m2
10:05 36.2 °F 33.5 °F 29.81 in North 8 mph 8 mph 90% 0.00 in 32 W/m2
10:10 36.1 °F 33.5 °F 29.82 in NNE 8 mph 8 mph 90% 0.00 in 28 W/m2
10:15 36.1 °F 33.5 °F 29.83 in NW 8 mph 8 mph 90% 0.00 in 37 W/m2
10:20 36.1 °F 33.5 °F 29.83 in NNW 7 mph 7 mph 90% 0.00 in 40 W/m2
10:25 36.2 °F 33.5 °F 29.83 in NNW 7 mph 7 mph 90% 0.00 in 46 W/m2
10:30 36.2 °F 33.5 °F 29.84 in NW 7 mph 12 mph 90% 0.00 in 65 W/m2
10:35 36.2 °F 33.5 °F 29.84 in North 7 mph 12 mph 90% 0.00 in 69 W/m2
10:40 36.3 °F 33.6 °F 29.85 in NW 7 mph 7 mph 90% 0.00 in 77 W/m2
10:45 36.4 °F 33.7 °F 29.85 in NW 5 mph 10 mph 90% 0.00 in 91 W/m2
10:50 36.4 °F 33.7 °F 29.86 in NNW 5 mph 5 mph 90% 0.00 in 111 W/m2
10:55 36.4 °F 33.7 °F 29.86 in NW 6 mph 6 mph 90% 0.00 in 116 W/m2
11:00 36.5 °F 33.6 °F 29.86 in WNW 6 mph 7 mph 89% 0.00 in 116 W/m2
11:05 36.6 °F 33.7 °F 29.87 in NNW 5 mph 7 mph 89% 0.00 in 137 W/m2
11:10 36.6 °F 33.7 °F 29.87 in NNW 6 mph 6 mph 89% 0.00 in 169 W/m2
11:15 36.8 °F 33.9 °F 29.88 in NW 6 mph 9 mph 89% 0.00 in 181 W/m2
11:20 36.9 °F 34 °F 29.90 in NNW 5 mph 5 mph 89% 0.00 in 132 W/m2
11:25 37.1 °F 34.2 °F 29.90 in NW 3 mph 5 mph 89% 0.00 in 185 W/m2
11:30 37.3 °F 34.4 °F 29.90 in NNW 3 mph 3 mph 89% 0.00 in 183 W/m2
11:35 37.5 °F 34.6 °F 29.91 in NW 3 mph 4 mph 89% 0.00 in 206 W/m2
11:40 37.7 °F 34.8 °F 29.91 in NW 4 mph 6 mph 89% 0.00 in 197 W/m2
11:45 37.8 °F 34.6 °F 29.92 in NNW 4 mph 6 mph 88% 0.00 in 216 W/m2
11:50 37.9 °F 34.4 °F 29.92 in NW 5 mph 5 mph 87% 0.00 in 186 W/m2
11:55 37.9 °F 34.4 °F 29.92 in NNW 5 mph 5 mph 87% 0.00 in 178 W/m2
12:00 38.1 °F 34.6 °F 29.93 in NW 5 mph 5 mph 87% 0.00 in 206 W/m2
12:05 38.2 °F 34.7 °F 29.93 in NW 5 mph 10 mph 87% 0.00 in 169 W/m2
12:10 38.2 °F 34.7 °F 29.93 in NW 4 mph 7 mph 87% 0.00 in 151 W/m2
12:15 38.2 °F 34.4 °F 29.94 in West 4 mph 7 mph 86% 0.00 in 237 W/m2
12:20 38.3 °F 34.5 °F 29.94 in NW 5 mph 5 mph 86% 0.00 in 276 W/m2
12:25 38.6 °F 34.8 °F 29.94 in WNW 4 mph 5 mph 86% 0.00 in 302 W/m2
12:30 38.7 °F 34.6 °F 29.94 in NW 3 mph 6 mph 85% 0.00 in 272 W/m2
12:35 38.9 °F 34.8 °F 29.94 in West 3 mph 8 mph 85% 0.00 in 239 W/m2
12:40 38.9 °F 34.5 °F 29.94 in WSW 5 mph 7 mph 84% 0.00 in 258 W/m2
12:45 39 °F 34.6 °F 29.94 in NW 5 mph 7 mph 84% 0.00 in 258 W/m2
12:50 39.1 °F 34.7 °F 29.94 in NW 4 mph 6 mph 84% 0.00 in 274 W/m2
12:55 39.2 °F 34.8 °F 29.94 in WNW 5 mph 6 mph 84% 0.00 in 211 W/m2
13:00 39.4 °F 35 °F 29.94 in NW 4 mph 4 mph 84% 0.00 in 262 W/m2
13:05 39.6 °F 35.2 °F 29.94 in WNW 4 mph 4 mph 84% 0.00 in 299 W/m2
13:10 39.7 °F 35.3 °F 29.94 in WNW 4 mph 4 mph 84% 0.00 in 346 W/m2
13:15 39.7 °F 35 °F 29.95 in West 4 mph 8 mph 83% 0.00 in 269 W/m2
13:20 39.5 °F 34.8 °F 29.95 in West 4 mph 4 mph 83% 0.00 in 248 W/m2
13:25 39.5 °F 34.5 °F 29.95 in West 4 mph 4 mph 82% 0.00 in 278 W/m2
13:30 39.6 °F 34.9 °F 29.96 in West 3 mph 3 mph 83% 0.00 in 313 W/m2
13:35 40 °F 35.3 °F 29.95 in South 3 mph 5 mph 83% 0.00 in 276 W/m2
13:40 39.7 °F 34.3 °F 29.96 in WNW 4 mph 4 mph 81% 0.00 in 264 W/m2
13:45 39.7 °F 35 °F 29.96 in NW 5 mph 8 mph 83% 0.00 in 239 W/m2
13:50 39.6 °F 34.6 °F 29.96 in West 5 mph 5 mph 82% 0.00 in 295 W/m2
13:55 39.8 °F 35.1 °F 29.96 in NNW 6 mph 6 mph 83% 0.00 in 253 W/m2
14:00 39.6 °F 34.6 °F 29.96 in West 5 mph 7 mph 82% 0.00 in 250 W/m2
14:05 39.6 °F 34.6 °F 29.96 in WNW 6 mph 7 mph 82% 0.00 in 288 W/m2
14:10 39.5 °F 34.5 °F 29.97 in West 6 mph 6 mph 82% 0.00 in 332 W/m2
14:15 39.6 °F 34.6 °F 29.97 in NW 6 mph 8 mph 82% 0.00 in 241 W/m2
14:20 39.7 °F 34.7 °F 29.97 in West 5 mph 8 mph 82% 0.00 in 262 W/m2
14:25 39.9 °F 34.9 °F 29.97 in West 5 mph 8 mph 82% 0.00 in 295 W/m2
14:30 39.9 °F 34.5 °F 29.97 in West 5 mph 9 mph 81% 0.00 in 290 W/m2
14:35 39.7 °F 34.3 °F 29.97 in West 5 mph 9 mph 81% 0.00 in 274 W/m2
14:40 39.9 °F 34.5 °F 29.97 in WNW 5 mph 5 mph 81% 0.00 in 295 W/m2
14:45 40.3 °F 34.9 °F 29.97 in West 4 mph 5 mph 81% 0.00 in 313 W/m2
14:50 40.6 °F 35.2 °F 29.97 in West 4 mph 6 mph 81% 0.00 in 288 W/m2
14:55 40.3 °F 34.3 °F 29.98 in NW 4 mph 6 mph 79% 0.00 in 225 W/m2
15:00 40.3 °F 34.9 °F 29.98 in WNW 5 mph 5 mph 81% 0.00 in 239 W/m2
15:05 40 °F 34.3 °F 29.98 in West 4 mph 5 mph 80% 0.00 in 283 W/m2
15:10 40.3 °F 35.2 °F 29.98 in SW 3 mph 3 mph 82% 0.00 in 253 W/m2
15:15 40.7 °F 35.6 °F 29.97 in South 3 mph 3 mph 82% 0.00 in 265 W/m2
15:20 40.7 °F 35.3 °F 29.98 in West 3 mph 3 mph 81% 0.00 in 211 W/m2
15:25 40.3 °F 34.9 °F 29.99 in West 3 mph 6 mph 81% 0.00 in 183 W/m2
15:30 40.6 °F 35.2 °F 29.99 in West 3 mph 3 mph 81% 0.00 in 171 W/m2
15:35 40.5 °F 35.4 °F 29.99 in WSW 3 mph 3 mph 82% 0.00 in 162 W/m2
15:40 40.5 °F 35.4 °F 29.99 in WSW 3 mph 4 mph 82% 0.00 in 135 W/m2
15:45 40.4 °F 35.6 °F 30.00 in WSW 3 mph 4 mph 83% 0.00 in 141 W/m2
15:50 40.1 °F 34.7 °F 30.00 in West 4 mph 9 mph 81% 0.00 in 156 W/m2
15:55 40 °F 34.9 °F 30.00 in WSW 6 mph 9 mph 82% 0.00 in 167 W/m2
16:00 40.2 °F 35.1 °F 30.00 in WSW 5 mph 5 mph 82% 0.00 in 144 W/m2
16:05 40.1 °F 34.7 °F 30.00 in West 4 mph 8 mph 81% 0.00 in 165 W/m2
16:10 40.1 °F 34.7 °F 30.00 in WSW 5 mph 5 mph 81% 0.00 in 174 W/m2
16:15 40.3 °F 34.9 °F 30.00 in WSW 4 mph 5 mph 81% 0.00 in 160 W/m2
16:20 40.2 °F 34.8 °F 30.00 in WSW 4 mph 4 mph 81% 0.00 in 153 W/m2
16:25 40.4 °F 35.3 °F 30.00 in SW 4 mph 5 mph 82% 0.00 in 146 W/m2
16:30 40.3 °F 35.2 °F 30.00 in West 5 mph 6 mph 82% 0.00 in 127 W/m2
16:35 40.3 °F 35.2 °F 30.00 in West 5 mph 7 mph 82% 0.00 in 128 W/m2
16:40 40.3 °F 35.2 °F 30.00 in West 4 mph 4 mph 82% 0.00 in 116 W/m2
16:45 40.4 °F 35.3 °F 30.00 in SW 4 mph 4 mph 82% 0.00 in 123 W/m2
16:50 40.5 °F 35.4 °F 30.00 in SW 4 mph 4 mph 82% 0.00 in 120 W/m2
16:55 40.4 °F 35 °F 30.00 in WSW 4 mph 4 mph 81% 0.00 in 118 W/m2
17:00 40.4 °F 35 °F 30.00 in WSW 4 mph 4 mph 81% 0.00 in 135 W/m2
17:05 40.5 °F 35.4 °F 30.00 in SW 3 mph 4 mph 82% 0.00 in 118 W/m2
17:10 40.5 °F 35.4 °F 30.00 in WSW 3 mph 4 mph 82% 0.00 in 121 W/m2
17:15 40.7 °F 35.9 °F 30.00 in WSW 3 mph 4 mph 83% 0.00 in 125 W/m2
17:20 40.8 °F 36 °F 30.00 in WSW 3 mph 4 mph 83% 0.00 in 120 W/m2
17:25 40.7 °F 35.6 °F 30.00 in WSW 3 mph 4 mph 82% 0.00 in 118 W/m2
17:30 40.8 °F 36 °F 30.01 in SW 3 mph 3 mph 83% 0.00 in 105 W/m2
17:35 40.9 °F 36.1 °F 30.01 in WSW 3 mph 3 mph 83% 0.00 in 93 W/m2
17:40 40.9 °F 35.8 °F 30.01 in SW 2 mph 3 mph 82% 0.00 in 90 W/m2
17:45 41 °F 35.9 °F 30.01 in West 3 mph 8 mph 82% 0.00 in 90 W/m2
17:50 41.1 °F 36.3 °F 30.01 in WSW 3 mph 3 mph 83% 0.00 in 90 W/m2
17:55 41.1 °F 36.3 °F 30.02 in West 3 mph 3 mph 83% 0.00 in 79 W/m2
18:00 41.3 °F 36.5 °F 30.02 in WSW 3 mph 3 mph 83% 0.00 in 79 W/m2
18:05 41.3 °F 36.5 °F 30.02 in WSW 3 mph 3 mph 83% 0.00 in 67 W/m2
18:10 41.3 °F 36.5 °F 30.02 in SW 4 mph 4 mph 83% 0.00 in 67 W/m2
18:15 41.4 °F 36.6 °F 30.02 in SW 4 mph 4 mph 83% 0.00 in 65 W/m2
18:20 41.3 °F 36.5 °F 30.02 in SSW 4 mph 8 mph 83% 0.00 in 60 W/m2
18:25 41.3 °F 36.5 °F 30.03 in West 4 mph 8 mph 83% 0.00 in 60 W/m2
18:30 41.4 °F 36.6 °F 30.03 in WSW 4 mph 4 mph 83% 0.00 in 60 W/m2
18:35 41.6 °F 37.1 °F 30.04 in WNW 4 mph 4 mph 84% 0.00 in 47 W/m2
18:40 41.5 °F 36.4 °F 30.04 in West 4 mph 4 mph 82% 0.00 in 44 W/m2
18:45 41.5 °F 36.1 °F 30.04 in West 4 mph 4 mph 81% 0.00 in 37 W/m2
18:50 41.4 °F 35.7 °F 30.04 in SSW 4 mph 4 mph 80% 0.00 in 33 W/m2
18:55 41.4 °F 35.7 °F 30.05 in WSW 3 mph 5 mph 80% 0.00 in 30 W/m2
19:00 41.4 °F 35.7 °F 30.05 in SW 4 mph 4 mph 80% 0.00 in 21 W/m2
19:05 41.5 °F 35.8 °F 30.05 in West 4 mph 4 mph 80% 0.00 in 26 W/m2
19:10 41.5 °F 36.1 °F 30.05 in WSW 3 mph 3 mph 81% 0.00 in 33 W/m2
19:15 41.4 °F 35.7 °F 30.05 in WNW 3 mph 4 mph 80% 0.00 in 42 W/m2
19:20 41.5 °F 35.5 °F 30.05 in West 4 mph 4 mph 79% 0.00 in 35 W/m2
19:25 41.5 °F 35.5 °F 30.05 in WSW 4 mph 4 mph 79% 0.00 in 28 W/m2
19:30 41.6 °F 35.2 °F 30.05 in WSW 2 mph 2 mph 78% 0.00 in 18 W/m2
19:35 41.6 °F 35.6 °F 30.05 in West 2 mph 2 mph 79% 0.00 in 14 W/m2
19:40 41.6 °F 35.9 °F 30.05 in WSW 2 mph 2 mph 80% 0.00 in 11 W/m2
19:45 41.6 °F 35.9 °F 30.05 in WSW 2 mph 2 mph 80% 0.00 in 9 W/m2
19:50 41.6 °F 35.9 °F 30.06 in WSW 1 mph 3 mph 80% 0.00 in 5 W/m2
19:55 41.5 °F 35.8 °F 30.06 in WSW 1 mph 3 mph 80% 0.00 in 0 W/m2
20:00 41.5 °F 35.8 °F 30.06 in WSW 1 mph 1 mph 80% 0.00 in 0 W/m2
20:05 41.4 °F 36 °F 30.06 in WSW 1 mph 1 mph 81% 0.00 in 0 W/m2
20:10 41.4 °F 36 °F 30.06 in WSW 1 mph 1 mph 81% 0.00 in 0 W/m2
20:15 41.4 °F 36.3 °F 30.06 in WSW 1 mph 1 mph 82% 0.00 in 0 W/m2
20:20 41.4 °F 36.3 °F 30.06 in WSW 1 mph 1 mph 82% 0.00 in 0 W/m2
20:25 41.3 °F 36.2 °F 30.06 in WSW 1 mph 1 mph 82% 0.00 in 0 W/m2
20:30 41.3 °F 36.2 °F 30.06 in Calm   1 mph 82% 0.00 in 0 W/m2
20:35 41.3 °F 36.2 °F 30.06 in Calm   1 mph 82% 0.00 in 0 W/m2
20:40 41.3 °F 36.2 °F 30.06 in Calm     82% 0.00 in 0 W/m2
20:45 41.2 °F 36.1 °F 30.06 in Calm   1 mph 82% 0.00 in 0 W/m2
20:50 41.3 °F 36.2 °F 30.07 in WSW 1 mph 1 mph 82% 0.00 in 0 W/m2
20:55 41.2 °F 36.1 °F 30.07 in WSW 1 mph 1 mph 82% 0.00 in 0 W/m2
21:00 41.1 °F 36 °F 30.07 in WSW 1 mph 2 mph 82% 0.00 in 0 W/m2
21:05 41.3 °F 36.5 °F 30.06 in SW 2 mph 2 mph 83% 0.00 in 0 W/m2
21:10 41.4 °F 36.6 °F 30.06 in SW 2 mph 2 mph 83% 0.00 in 0 W/m2
21:15 41.6 °F 36.8 °F 30.07 in SW 1 mph 2 mph 83% 0.00 in 0 W/m2
21:20 41.6 °F 36.8 °F 30.07 in SW 1 mph 1 mph 83% 0.00 in 0 W/m2
21:25 41.7 °F 36.6 °F 30.07 in SW 1 mph 1 mph 82% 0.00 in 0 W/m2
21:30 41.8 °F 36.7 °F 30.07 in SW 1 mph 1 mph 82% 0.00 in 0 W/m2
21:35 41.7 °F 36.9 °F 30.07 in Calm   1 mph 83% 0.00 in 0 W/m2
21:40 41.8 °F 36.7 °F 30.07 in Calm   1 mph 82% 0.00 in 0 W/m2
21:45 41.9 °F 36.8 °F 30.07 in Calm   1 mph 82% 0.00 in 0 W/m2
21:50 42 °F 36.9 °F 30.07 in Calm     82% 0.00 in 0 W/m2
21:55 42 °F 36.9 °F 30.07 in Calm     82% 0.00 in 0 W/m2
22:00 42 °F 36.9 °F 30.07 in Calm     82% 0.00 in 0 W/m2
22:05 42 °F 36.6 °F 30.07 in Calm     81% 0.00 in 0 W/m2
22:10 42.1 °F 37 °F 30.07 in Calm   1 mph 82% 0.00 in 0 W/m2
22:15 42.2 °F 37.4 °F 30.07 in SW 1 mph 1 mph 83% 0.00 in 0 W/m2
22:20 42.2 °F 37.4 °F 30.07 in SW 1 mph 1 mph 83% 0.00 in 0 W/m2
22:25 42.1 °F 37.3 °F 30.07 in SW 1 mph 1 mph 83% 0.00 in 0 W/m2
22:30 42.1 °F 37.6 °F 30.07 in SE 2 mph 2 mph 84% 0.00 in 0 W/m2
22:35 42 °F 37.5 °F 30.07 in SE 2 mph 2 mph 84% 0.00 in 0 W/m2
22:40 42 °F 37.5 °F 30.07 in SE 1 mph 1 mph 84% 0.00 in 0 W/m2
22:45 42 °F 37.5 °F 30.07 in SE 1 mph 1 mph 84% 0.00 in 0 W/m2
22:50 42 °F 37.5 °F 30.07 in SE 1 mph 1 mph 84% 0.00 in 0 W/m2
22:55 42 °F 37.5 °F 30.07 in SE 1 mph 1 mph 84% 0.00 in 0 W/m2
23:00 42 °F 37.5 °F 30.07 in SE 1 mph 1 mph 84% 0.00 in 0 W/m2
23:05 41.9 °F 37.4 °F 30.07 in SE 1 mph 1 mph 84% 0.00 in 0 W/m2
23:10 41.9 °F 37.4 °F 30.07 in SE 1 mph 2 mph 84% 0.00 in 0 W/m2
23:15 42 °F 37.5 °F 30.07 in SE 1 mph 2 mph 84% 0.00 in 0 W/m2
23:20 41.9 °F 37.4 °F 30.07 in SE 1 mph 1 mph 84% 0.00 in 0 W/m2
23:25 41.9 °F 37.4 °F 30.07 in Calm   1 mph 84% 0.00 in 0 W/m2
23:30 41.9 °F 37.4 °F 30.08 in Calm     84% 0.00 in 0 W/m2
23:35 41.9 °F 37.4 °F 30.08 in Calm     84% 0.00 in 0 W/m2
23:40 41.9 °F 37.4 °F 30.08 in Calm   1 mph 84% 0.00 in 0 W/m2
23:45 41.9 °F 37.4 °F 30.07 in Calm   1 mph 84% 0.00 in 0 W/m2
23:50 41.6 °F 36.8 °F 30.08 in NW 2 mph 4 mph 83% 0.00 in 0 W/m2
23:55 40.9 °F 35.8 °F 30.08 in NNE 4 mph 10 mph 82% 0.00 in 0 W/m2
Sand Point, Michigan, USA
Compliments of Weather Underground - 2 mb